Time;durP1;ratioP1;P1;durP2;ratioP2;P2;SDS_P1;SDS_P2;PMS_P1;PMS_P2;Temp;Humidity;BMP_temperature;BMP_pressure;BME280_temperature;BME280_humidity;BME280_pressure;Samples;Min_cycle;Max_cycle;Signal;HPM_P1;HPM_P2
2022/03/29 00:01:55;;;;;;;38.67;32.17;;;6.30;99.90;;;;;;4978925;28;89797;-35
2022/03/29 00:04:22;;;;;;;45.92;34.47;;;6.40;99.90;;;;;;4978680;28;89648;-36
2022/03/29 00:06:48;;;;;;;51.20;35.67;;;6.30;99.90;;;;;;4978578;28;90477;-36
2022/03/29 00:09:14;;;;;;;48.92;34.67;;;6.30;99.90;;;;;;4979211;28;90292;-36
2022/03/29 00:11:39;;;;;;;46.13;36.78;;;6.30;99.90;;;;;;4979303;28;90714;-38
2022/03/29 00:14:06;;;;;;;46.97;36.15;;;6.40;99.90;;;;;;4978186;28;89921;-36
2022/03/29 00:16:32;;;;;;;53.42;37.95;;;6.40;99.90;;;;;;4979328;28;89375;-36
2022/03/29 00:18:58;;;;;;;51.63;39.95;;;6.30;99.90;;;;;;5008188;22;90390;-37
2022/03/29 00:21:24;;;;;;;47.50;38.30;;;6.30;99.90;;;;;;4959299;28;90006;-39
2022/03/29 00:23:50;;;;;;;50.92;39.53;;;6.30;99.90;;;;;;4958597;28;89377;-34
2022/03/29 00:26:16;;;;;;;51.30;40.03;;;6.30;99.90;;;;;;4959149;28;88497;-38
2022/03/29 00:28:42;;;;;;;61.28;44.42;;;6.40;99.90;;;;;;4958812;28;89902;-36
2022/03/29 00:31:08;;;;;;;59.85;44.97;;;6.40;99.90;;;;;;4957970;28;90623;-37
2022/03/29 00:33:34;;;;;;;49.67;37.63;;;6.40;99.90;;;;;;4959353;28;90697;-35
2022/03/29 00:35:59;;;;;;;58.70;46.15;;;6.30;99.90;;;;;;4959243;28;88742;-36
2022/03/29 00:38:25;;;;;;;55.47;42.85;;;6.40;99.90;;;;;;4958338;28;90255;-35
2022/03/29 00:40:51;;;;;;;55.35;37.65;;;6.40;99.90;;;;;;4959168;28;89573;-35
2022/03/29 00:43:17;;;;;;;54.92;42.65;;;6.30;99.90;;;;;;4958562;28;89905;-38
2022/03/29 00:45:43;;;;;;;50.40;37.30;;;6.40;99.90;;;;;;4958994;28;88455;-36
2022/03/29 00:48:09;;;;;;;62.00;43.85;;;6.40;99.90;;;;;;4958787;28;89291;-33
2022/03/29 00:50:38;;;;;;;58.67;43.72;;;6.30;99.90;;;;;;4958156;28;88144;-34
2022/03/29 00:53:05;;;;;;;52.05;39.13;;;6.30;99.90;;;;;;4958520;28;88791;-36
2022/03/29 00:55:31;;;;;;;52.40;37.03;;;6.40;99.90;;;;;;4959004;28;90548;-38
2022/03/29 00:57:57;;;;;;;43.70;34.38;;;6.30;99.90;;;;;;4958508;28;91997;-35
2022/03/29 01:00:23;;;;;;;47.28;34.15;;;6.30;99.90;;;;;;4958149;28;89837;-42
2022/03/29 01:02:48;;;;;;;48.22;35.83;;;6.30;99.90;;;;;;4958501;28;89886;-33
2022/03/29 01:05:14;;;;;;;45.83;32.78;;;6.40;99.90;;;;;;4958049;28;89434;-34
2022/03/29 01:07:41;;;;;;;45.08;35.30;;;6.40;99.90;;;;;;4958179;28;90574;-38
2022/03/29 01:10:07;;;;;;;44.97;34.70;;;6.30;99.90;;;;;;4961161;28;89708;-35
2022/03/29 01:12:34;;;;;;;43.90;35.92;;;6.30;99.90;;;;;;4961712;28;89996;-35
2022/03/29 01:15:04;;;;;;;49.78;33.78;;;6.40;99.90;;;;;;4962088;28;88258;-37
2022/03/29 01:17:39;;;;;;;48.88;35.17;;;6.30;99.90;;;;;;4961798;28;92342;-40
2022/03/29 01:20:13;;;;;;;52.42;34.92;;;6.30;99.90;;;;;;4961383;28;91205;-36
2022/03/29 01:22:50;;;;;;;48.58;37.03;;;6.30;99.90;;;;;;4961617;28;90579;-36
2022/03/29 01:25:20;;;;;;;48.45;34.78;;;6.40;99.90;;;;;;4962194;28;88490;-36
2022/03/29 01:27:49;;;;;;;49.70;34.20;;;6.30;99.90;;;;;;4961059;28;90082;-38
2022/03/29 01:30:15;;;;;;;;;;;6.40;99.90;;;;;;4962995;28;89951;-38
2022/03/29 01:32:44;;;;;;;42.53;31.42;;;6.30;99.90;;;;;;4963275;28;89580;-34
2022/03/29 01:35:12;;;;;;;44.20;34.08;;;6.30;99.90;;;;;;4961910;28;88179;-35
2022/03/29 01:37:38;;;;;;;45.83;34.08;;;6.40;99.90;;;;;;4961221;28;90087;-38
2022/03/29 01:40:07;;;;;;;46.38;35.83;;;6.40;99.90;;;;;;4961559;28;89733;-36
2022/03/29 01:42:33;;;;;;;57.60;37.47;;;6.40;99.90;;;;;;4961113;28;89487;-37
2022/03/29 01:45:00;;;;;;;46.92;37.47;;;6.30;99.90;;;;;;4960658;28;90866;-34
2022/03/29 01:47:26;;;;;;;48.63;34.10;;;6.30;99.90;;;;;;4961431;28;89814;-35
2022/03/29 01:49:51;;;;;;;56.10;35.58;;;6.30;99.90;;;;;;4960945;28;89779;-35
2022/03/29 01:52:17;;;;;;;49.58;36.97;;;6.30;99.90;;;;;;4942755;28;89550;-34
2022/03/29 01:54:43;;;;;;;47.47;34.55;;;6.30;99.90;;;;;;4961189;28;89610;-34
2022/03/29 01:57:09;;;;;;;53.10;33.40;;;6.30;99.90;;;;;;4961100;28;89314;-34
2022/03/29 02:02:36;;;;;;;52.67;36.85;;;6.40;99.90;;;;;;4918313;28;89477;-35
2022/03/29 02:05:02;;;;;;;55.67;35.55;;;6.30;99.90;;;;;;4951502;28;89423;-37
2022/03/29 02:07:27;;;;;;;45.60;32.78;;;6.30;99.90;;;;;;4961068;28;90877;-36
2022/03/29 02:09:53;;;;;;;49.42;34.60;;;6.30;99.90;;;;;;4960067;28;90683;-38
2022/03/29 02:12:18;;;;;;;42.28;31.35;;;6.30;99.90;;;;;;4961214;28;91150;-35
2022/03/29 02:14:44;;;;;;;43.60;33.30;;;6.30;99.90;;;;;;4960793;28;89514;-34
2022/03/29 02:17:09;;;;;;;46.75;34.80;;;6.30;99.90;;;;;;4960862;28;90430;-34
2022/03/29 02:19:35;;;;;;;51.35;37.20;;;6.30;99.90;;;;;;4959684;28;89389;-37
2022/03/29 02:22:01;;;;;;;52.53;34.70;;;6.30;99.90;;;;;;4960626;28;89549;-37
2022/03/29 02:24:26;;;;;;;53.00;35.42;;;6.30;99.90;;;;;;4960568;28;89148;-36
2022/03/29 02:26:52;;;;;;;55.25;35.05;;;6.20;99.90;;;;;;4960383;28;89885;-39
2022/03/29 02:29:17;;;;;;;46.72;35.45;;;6.20;99.90;;;;;;4961096;28;89335;-34
2022/03/29 02:31:43;;;;;;;44.00;34.00;;;6.30;99.90;;;;;;4960483;28;89126;-35
2022/03/29 02:34:08;;;;;;;52.53;34.08;;;6.30;99.90;;;;;;4960508;28;90200;-35
2022/03/29 02:36:34;;;;;;;49.60;33.70;;;6.30;99.90;;;;;;4960492;28;90666;-35
2022/03/29 02:38:59;;;;;;;44.13;33.45;;;6.30;99.90;;;;;;4960177;28;90236;-35
2022/03/29 02:41:25;;;;;;;46.60;33.08;;;6.30;99.90;;;;;;4960494;28;90798;-35
2022/03/29 02:43:50;;;;;;;51.65;34.90;;;6.40;99.90;;;;;;4960459;28;87978;-36
2022/03/29 02:46:16;;;;;;;46.08;32.63;;;6.30;99.90;;;;;;4961035;28;91256;-34
2022/03/29 02:48:42;;;;;;;49.58;34.28;;;6.30;99.90;;;;;;4959712;28;89757;-34
2022/03/29 02:51:07;;;;;;;44.28;33.20;;;6.30;99.90;;;;;;4960783;28;89635;-35
2022/03/29 02:53:33;;;;;;;48.80;34.20;;;6.30;99.90;;;;;;4960071;28;87977;-35
2022/03/29 02:55:59;;;;;;;52.40;34.47;;;6.30;99.90;;;;;;4960410;28;92415;-38
2022/03/29 02:58:24;;;;;;;52.80;33.45;;;6.40;99.90;;;;;;4959508;28;94039;-34
2022/03/29 03:00:51;;;;;;;47.97;32.55;;;6.30;99.90;;;;;;4960015;28;90771;-34
2022/03/29 03:03:17;;;;;;;46.75;34.72;;;6.30;99.90;;;;;;4960569;28;90080;-38
2022/03/29 03:05:43;;;;;;;43.67;34.10;;;6.30;99.90;;;;;;4959539;28;90194;-33
2022/03/29 03:08:08;;;;;;;48.88;33.75;;;6.30;99.90;;;;;;4960216;28;89168;-35
2022/03/29 03:10:34;;;;;;;48.92;34.92;;;6.40;99.90;;;;;;4959837;28;89754;-36
2022/03/29 03:13:00;;;;;;;47.15;35.42;;;6.30;99.90;;;;;;4959919;28;89962;-40
2022/03/29 03:15:26;;;;;;;46.10;34.70;;;6.30;99.90;;;;;;4960295;28;90663;-33
2022/03/29 03:17:55;;;;;;;50.15;33.10;;;6.30;99.90;;;;;;4959186;28;89671;-35
2022/03/29 03:20:21;;;;;;;58.65;34.17;;;6.30;99.90;;;;;;4959008;28;90163;-34
2022/03/29 03:22:47;;;;;;;48.45;33.70;;;6.30;99.90;;;;;;4959503;28;88234;-34
2022/03/29 03:25:13;;;;;;;50.80;34.53;;;6.40;99.90;;;;;;4959949;28;90326;-37
2022/03/29 03:27:40;;;;;;;51.55;35.30;;;6.30;99.90;;;;;;4959230;28;89422;-39
2022/03/29 03:30:12;;;;;;;46.42;34.33;;;6.30;99.90;;;;;;4960190;28;89799;-34
2022/03/29 03:32:38;;;;;;;45.78;31.90;;;6.30;99.90;;;;;;4958747;28;89314;-35
2022/03/29 03:35:04;;;;;;;45.80;34.50;;;6.40;99.90;;;;;;4959996;28;90162;-36
2022/03/29 03:37:30;;;;;;;44.83;31.17;;;6.40;99.90;;;;;;4959225;28;90000;-35
2022/03/29 03:39:56;;;;;;;49.63;34.35;;;6.40;99.90;;;;;;4959501;28;89702;-36
2022/03/29 03:42:22;;;;;;;40.40;30.50;;;6.40;99.90;;;;;;4959556;28;88775;-34
2022/03/29 03:44:47;;;;;;;42.58;31.35;;;6.40;99.90;;;;;;4958673;28;90281;-36
2022/03/29 03:47:13;;;;;;;39.58;30.20;;;6.50;99.90;;;;;;4959600;28;90698;-34
2022/03/29 03:49:39;;;;;;;47.13;33.35;;;6.40;99.90;;;;;;4958373;28;90119;-34
2022/03/29 03:52:07;;;;;;;47.60;34.15;;;6.40;99.90;;;;;;4959458;28;89148;-35
2022/03/29 03:54:34;;;;;;;39.67;31.75;;;6.40;99.90;;;;;;4959288;28;88937;-34
2022/03/29 03:56:59;;;;;;;44.47;32.13;;;6.40;99.90;;;;;;4959200;28;89180;-38
2022/03/29 03:59:25;;;;;;;52.95;33.35;;;6.40;99.90;;;;;;4959124;28;89694;-37
2022/03/29 04:01:51;;;;;;;42.90;29.80;;;6.40;99.90;;;;;;4959221;28;88684;-37
2022/03/29 04:04:16;;;;;;;51.45;31.45;;;6.40;99.90;;;;;;4958646;28;90538;-38
2022/03/29 04:06:42;;;;;;;44.22;29.90;;;6.40;99.90;;;;;;4959623;28;89555;-33
2022/03/29 04:09:07;;;;;;;46.13;31.35;;;6.40;99.90;;;;;;4958514;28;89508;-36
2022/03/29 04:11:33;;;;;;;44.95;30.88;;;6.40;99.90;;;;;;4959079;28;90149;-37
2022/03/29 04:13:58;;;;;;;44.33;29.80;;;6.40;99.90;;;;;;4958680;28;89452;-34
2022/03/29 04:16:25;;;;;;;37.75;28.90;;;6.40;99.90;;;;;;4958899;28;89441;-39
2022/03/29 04:18:51;;;;;;;43.08;30.13;;;6.40;99.90;;;;;;4958392;28;91436;-34
2022/03/29 04:21:17;;;;;;;36.92;28.50;;;6.40;99.90;;;;;;4959508;28;89714;-35
2022/03/29 04:23:42;;;;;;;41.60;29.88;;;6.40;99.90;;;;;;4959509;28;89922;-35
2022/03/29 04:26:08;;;;;;;41.63;29.40;;;6.40;99.90;;;;;;4958591;28;89858;-38
2022/03/29 04:28:34;;;;;;;38.92;28.13;;;6.40;99.90;;;;;;4959256;28;89930;-36
2022/03/29 04:30:59;;;;;;;37.42;28.35;;;6.40;99.90;;;;;;4959452;28;89150;-36
2022/03/29 04:33:26;;;;;;;39.05;28.45;;;6.40;99.90;;;;;;4957941;28;89413;-35
2022/03/29 04:35:51;;;;;;;36.13;27.23;;;6.30;99.90;;;;;;4958528;28;91652;-37
2022/03/29 04:38:17;;;;;;;37.47;28.33;;;6.30;99.90;;;;;;4958635;28;91033;-35
2022/03/29 04:40:43;;;;;;;40.25;29.17;;;6.30;99.90;;;;;;4958846;28;89536;-39
2022/03/29 04:43:09;;;;;;;39.55;29.02;;;6.30;99.90;;;;;;4958580;28;90106;-34
2022/03/29 04:45:34;;;;;;;44.70;31.15;;;6.30;99.90;;;;;;4961763;28;89646;-36
2022/03/29 04:48:00;;;;;;;38.22;30.58;;;6.40;99.90;;;;;;4962816;28;89664;-35
2022/03/29 04:50:26;;;;;;;42.03;31.58;;;6.40;99.90;;;;;;4962201;28;88670;-34
2022/03/29 04:52:51;;;;;;;40.63;30.15;;;6.30;99.90;;;;;;4962356;28;90128;-36
2022/03/29 04:55:18;;;;;;;43.80;30.55;;;6.30;99.90;;;;;;4962148;28;90286;-35
2022/03/29 04:57:47;;;;;;;37.67;29.15;;;6.30;99.90;;;;;;4961362;28;89934;-37
2022/03/29 05:00:14;;;;;;;43.42;32.35;;;6.30;99.90;;;;;;4961756;28;89940;-35
2022/03/29 05:02:43;;;;;;;43.37;29.57;;;6.30;99.90;;;;;;4961965;28;90660;-38
2022/03/29 05:05:10;;;;;;;47.13;31.10;;;6.30;99.90;;;;;;4961766;28;89485;-35
2022/03/29 05:07:37;;;;;;;38.40;29.08;;;6.30;99.90;;;;;;4961594;28;90115;-34
2022/03/29 05:10:04;;;;;;;36.65;29.27;;;6.30;99.90;;;;;;4961549;28;88396;-36
2022/03/29 05:12:30;;;;;;;39.55;30.77;;;6.30;99.90;;;;;;4962326;28;90198;-36
2022/03/29 05:14:58;;;;;;;43.03;30.25;;;6.40;99.90;;;;;;4960930;28;89588;-37
2022/03/29 05:17:24;;;;;;;41.63;29.33;;;6.40;99.90;;;;;;4961484;28;90150;-34
2022/03/29 05:19:49;;;;;;;44.10;27.77;;;6.40;99.90;;;;;;4960764;28;88099;-39
2022/03/29 05:22:15;;;;;;;38.45;28.55;;;6.40;99.90;;;;;;4961765;28;90214;-35
2022/03/29 05:24:41;;;;;;;37.65;28.85;;;6.40;99.90;;;;;;4960969;28;89715;-39
2022/03/29 05:27:06;;;;;;;44.25;31.83;;;6.40;99.90;;;;;;4961741;28;90522;-35
2022/03/29 05:29:32;;;;;;;37.55;28.55;;;6.40;99.90;;;;;;4961022;28;90208;-36
2022/03/29 05:31:59;;;;;;;39.67;30.48;;;6.40;99.90;;;;;;4961594;28;90937;-34
2022/03/29 05:34:24;;;;;;;44.88;31.70;;;6.40;99.90;;;;;;4961514;28;89521;-33
2022/03/29 05:36:50;;;;;;;39.13;31.08;;;6.40;99.90;;;;;;4961278;28;93888;-35
2022/03/29 05:39:16;;;;;;;39.80;30.80;;;6.40;99.90;;;;;;4961422;28;89141;-36
2022/03/29 05:41:42;;;;;;;43.20;30.42;;;6.40;99.90;;;;;;4960676;28;90483;-37
2022/03/29 05:44:08;;;;;;;42.20;30.40;;;6.40;99.90;;;;;;4961276;28;89317;-35
2022/03/29 05:49:20;;;;;;;45.20;30.83;;;6.40;99.90;;;;;;4960814;28;88660;-35
2022/03/29 05:51:46;;;;;;;49.22;32.30;;;6.40;99.90;;;;;;4960272;28;90014;-35
2022/03/29 05:54:12;;;;;;;49.35;32.25;;;6.40;99.90;;;;;;4960581;28;89712;-34
2022/03/29 05:56:38;;;;;;;47.58;33.50;;;6.40;99.90;;;;;;4959339;28;90060;-37
2022/03/29 05:59:04;;;;;;;41.03;30.55;;;6.50;99.90;;;;;;4961534;28;89131;-36
2022/03/29 06:01:29;;;;;;;43.72;32.63;;;6.40;99.90;;;;;;4884908;28;90049;-37
2022/03/29 06:03:55;;;;;;;47.88;34.17;;;6.40;99.90;;;;;;4973043;28;89562;-37
2022/03/29 06:06:21;;;;;;;48.83;36.63;;;6.50;99.90;;;;;;4980701;28;89596;-36
2022/03/29 06:08:47;;;;;;;47.65;35.22;;;6.50;99.90;;;;;;4980386;28;89648;-35
2022/03/29 06:11:14;;;;;;;46.22;34.10;;;6.50;99.90;;;;;;4981199;28;90359;-33
2022/03/29 06:13:40;;;;;;;46.42;34.15;;;6.60;99.90;;;;;;4979308;28;90621;-38
2022/03/29 06:16:05;;;;;;;51.15;36.63;;;6.60;99.90;;;;;;4980641;28;90511;-39
2022/03/29 06:18:31;;;;;;;46.40;34.03;;;6.60;99.90;;;;;;4980435;28;88791;-36
2022/03/29 06:20:57;;;;;;;48.63;33.95;;;6.60;99.90;;;;;;4979586;28;90334;-33
2022/03/29 06:23:23;;;;;;;52.50;34.20;;;6.60;99.90;;;;;;4980548;28;89731;-34
2022/03/29 06:25:50;;;;;;;53.42;36.15;;;6.60;99.90;;;;;;4979874;28;89905;-35
2022/03/29 06:28:17;;;;;;;48.17;34.05;;;6.70;99.90;;;;;;4980396;28;89149;-37
2022/03/29 06:30:43;;;;;;;50.47;35.35;;;6.70;99.90;;;;;;4980138;28;90253;-35
2022/03/29 06:33:10;;;;;;;50.35;36.10;;;6.70;99.90;;;;;;4979713;28;89051;-37
2022/03/29 06:35:38;;;;;;;58.80;40.75;;;6.70;99.90;;;;;;4979880;28;89427;-35
2022/03/29 06:38:05;;;;;;;59.10;38.13;;;6.70;99.90;;;;;;4980349;28;90452;-40
2022/03/29 06:40:31;;;;;;;64.43;41.75;;;6.80;99.90;;;;;;4979976;28;90903;-35
2022/03/29 06:42:57;;;;;;;60.10;41.97;;;6.70;99.90;;;;;;4979683;28;89963;-35
2022/03/29 06:45:24;;;;;;;55.40;39.92;;;6.80;99.90;;;;;;4980276;28;90630;-40
2022/03/29 06:47:50;;;;;;;59.17;40.47;;;6.70;99.90;;;;;;4980601;28;89625;-35
2022/03/29 06:50:16;;;;;;;65.57;42.78;;;6.80;99.90;;;;;;4979608;28;88818;-34
2022/03/29 06:52:44;;;;;;;58.15;42.78;;;6.80;99.90;;;;;;4979105;28;89538;-34
2022/03/29 06:55:11;;;;;;;62.55;42.33;;;6.80;99.90;;;;;;4980752;28;89894;-34
2022/03/29 06:57:37;;;;;;;59.65;43.03;;;6.90;99.90;;;;;;4979353;28;88453;-38
2022/03/29 07:00:09;;;;;;;67.05;43.30;;;6.90;99.90;;;;;;4979746;28;89927;-35
2022/03/29 07:02:35;;;;;;;61.88;43.15;;;7.00;99.90;;;;;;4978306;28;91479;-37
2022/03/29 07:05:01;;;;;;;65.70;41.67;;;7.00;99.90;;;;;;4978009;28;90116;-35
2022/03/29 07:07:27;;;;;;;62.72;41.92;;;7.00;99.90;;;;;;4979518;28;88844;-35
2022/03/29 07:13:00;;;;;;;65.65;45.00;;;7.10;99.90;;;;;;4934737;28;89901;-34
2022/03/29 07:15:26;;;;;;;62.53;44.20;;;7.10;99.90;;;;;;4961868;28;88303;-35
2022/03/29 07:17:53;;;;;;;54.05;39.05;;;7.20;99.90;;;;;;4978889;28;88250;-36
2022/03/29 07:20:19;;;;;;;69.93;44.15;;;7.20;99.90;;;;;;4979171;28;90239;-38
2022/03/29 07:22:47;;;;;;;60.63;43.45;;;7.20;99.90;;;;;;4979238;28;89368;-37
2022/03/29 07:25:13;;;;;;;61.90;44.13;;;7.20;99.90;;;;;;4979361;28;89549;-34
2022/03/29 07:27:40;;;;;;;63.28;44.63;;;7.20;99.90;;;;;;4979165;28;89513;-33
2022/03/29 07:30:07;;;;;;;70.13;46.45;;;7.20;99.90;;;;;;4979568;28;90317;-34
2022/03/29 07:32:41;;;;;;;61.88;44.28;;;7.20;99.90;;;;;;4984845;28;89708;-36
2022/03/29 07:35:07;;;;;;;68.78;49.33;;;7.40;99.90;;;;;;4997299;28;89675;-35
2022/03/29 07:37:32;;;;;;;64.85;47.20;;;7.30;99.90;;;;;;4983606;28;89839;-35
2022/03/29 07:39:58;;;;;;;69.63;48.75;;;7.30;99.90;;;;;;4976384;28;90277;-34
2022/03/29 07:42:23;;;;;;;72.25;48.67;;;7.30;99.90;;;;;;4977754;28;90371;-35
2022/03/29 07:44:50;;;;;;;72.10;49.13;;;7.40;99.90;;;;;;4976530;28;90843;-35
2022/03/29 07:47:19;;;;;;;68.88;49.10;;;7.40;99.90;;;;;;4976906;28;88681;-37
2022/03/29 07:49:45;;;;;;;64.55;45.58;;;7.40;99.90;;;;;;4976495;28;89326;-35
2022/03/29 07:52:11;;;;;;;67.80;45.72;;;7.60;99.90;;;;;;4976460;28;92561;-37
2022/03/29 07:54:37;;;;;;;63.45;46.03;;;7.60;99.90;;;;;;4976870;28;91201;-33
2022/03/29 07:57:04;;;;;;;67.25;46.45;;;7.50;99.90;;;;;;4977221;28;87588;-37
2022/03/29 07:59:30;;;;;;;69.22;48.55;;;7.50;99.90;;;;;;4976781;28;90199;-35
2022/03/29 08:01:55;;;;;;;62.63;46.10;;;7.50;99.90;;;;;;4976596;28;88995;-38
2022/03/29 08:04:21;;;;;;;71.18;46.05;;;7.60;99.90;;;;;;4975728;28;91315;-37
2022/03/29 08:06:47;;;;;;;69.50;45.53;;;7.70;99.90;;;;;;4959135;28;88955;-35
2022/03/29 08:09:14;;;;;;;66.70;44.90;;;7.70;99.90;;;;;;4976714;28;92953;-37
2022/03/29 08:11:40;;;;;;;65.65;46.40;;;7.70;99.90;;;;;;4976120;28;89627;-39
2022/03/29 08:14:06;;;;;;;61.63;41.17;;;7.80;99.90;;;;;;4976206;28;89252;-35
2022/03/29 08:16:33;;;;;;;60.25;40.95;;;8.00;99.90;;;;;;4976786;28;90139;-34
2022/03/29 08:18:59;;;;;;;60.42;41.30;;;7.90;99.90;;;;;;4957667;28;89982;-34
2022/03/29 08:24:09;;;;;;;58.90;41.20;;;7.80;99.90;;;;;;4976212;28;89632;-36
2022/03/29 08:26:35;;;;;;;56.78;41.05;;;7.90;99.90;;;;;;4976175;28;88524;-36
2022/03/29 08:29:01;;;;;;;61.33;41.83;;;8.00;99.90;;;;;;4976595;28;90145;-36
2022/03/29 08:31:26;;;;;;;70.63;41.50;;;8.10;99.90;;;;;;4977052;28;89982;-33
2022/03/29 08:33:52;;;;;;;112.82;46.90;;;8.30;99.90;;;;;;4958062;28;89855;-36
2022/03/29 08:36:17;;;;;;;67.50;43.17;;;8.50;99.90;;;;;;4976779;28;88718;-34
2022/03/29 08:38:44;;;;;;;64.00;41.67;;;8.70;99.90;;;;;;4975712;28;90502;-37
2022/03/29 08:41:10;;;;;;;56.03;40.70;;;8.80;99.90;;;;;;4976342;28;90450;-37
2022/03/29 08:43:35;;;;;;;60.15;39.38;;;8.70;99.90;;;;;;4976088;28;92294;-35
2022/03/29 08:46:01;;;;;;;62.22;40.05;;;8.70;99.90;;;;;;4976069;28;88732;-35
2022/03/29 08:48:28;;;;;;;52.45;34.13;;;8.80;99.90;;;;;;4976359;28;90808;-34
2022/03/29 08:50:57;;;;;;;52.72;35.60;;;8.70;99.90;;;;;;4975582;28;89089;-35
2022/03/29 08:53:23;;;;;;;51.10;35.97;;;8.70;99.90;;;;;;4975835;28;89382;-34
2022/03/29 08:55:49;;;;;;;52.10;33.60;;;8.50;99.90;;;;;;4976343;28;88918;-37
2022/03/29 08:58:17;;;;;;;52.25;34.20;;;8.60;99.90;;;;;;4976329;28;90013;-35
2022/03/29 09:00:46;;;;;;;;;;;8.60;99.90;;;;;;4976064;28;89715;-35
2022/03/29 09:03:14;;;;;;;47.25;32.50;;;8.60;99.90;;;;;;4977904;28;89616;-33
2022/03/29 09:05:40;;;;;;;60.78;35.75;;;8.50;99.90;;;;;;4975337;28;89282;-38
2022/03/29 09:08:09;;;;;;;47.85;34.38;;;8.60;99.90;;;;;;4976659;28;89349;-36
2022/03/29 09:10:44;;;;;;;53.97;35.40;;;8.50;99.90;;;;;;4976174;28;88619;-35
2022/03/29 09:13:20;;;;;;;49.08;34.75;;;8.50;99.90;;;;;;4975966;28;89740;-35
2022/03/29 09:15:47;;;;;;;48.53;35.60;;;8.60;99.90;;;;;;4976039;28;89414;-35
2022/03/29 09:18:13;;;;;;;48.65;36.30;;;8.70;99.90;;;;;;4976382;28;89506;-35
2022/03/29 09:20:40;;;;;;;52.70;34.92;;;8.80;99.90;;;;;;4975048;28;89474;-34
2022/03/29 09:23:12;;;;;;;47.20;35.13;;;8.80;99.90;;;;;;4976011;28;89429;-36
2022/03/29 09:25:47;;;;;;;54.40;36.97;;;8.90;99.90;;;;;;4975557;28;88676;-34
2022/03/29 09:28:14;;;;;;;55.65;36.38;;;9.00;99.90;;;;;;4976738;28;90972;-34
2022/03/29 09:30:40;;;;;;;56.85;36.88;;;9.00;99.90;;;;;;4976705;28;90679;-36
2022/03/29 09:33:14;;;;;;;51.80;36.20;;;8.80;99.90;;;;;;4979008;28;90542;-38
2022/03/29 09:35:52;;;;;;;50.25;33.97;;;8.80;99.90;;;;;;4979897;28;89299;-37
2022/03/29 09:38:21;;;;;;;49.45;33.20;;;8.90;99.90;;;;;;4979045;28;90689;-38
2022/03/29 09:40:47;;;;;;;56.78;37.45;;;9.00;99.90;;;;;;4978751;28;89777;-34
2022/03/29 09:43:13;;;;;;;48.90;34.35;;;9.10;99.90;;;;;;4978980;28;89680;-36
2022/03/29 09:45:45;;;;;;;51.72;34.60;;;9.20;99.90;;;;;;4979366;28;90050;-35
2022/03/29 09:48:21;;;;;;;49.08;31.33;;;9.00;99.90;;;;;;4979070;28;90402;-38
2022/03/29 09:50:47;;;;;;;50.15;32.42;;;9.30;99.90;;;;;;4978682;28;89450;-34
2022/03/29 09:53:34;;;;;;;50.33;33.10;;;9.10;99.90;;;;;;4978321;28;89232;-38
2022/03/29 09:56:00;;;;;;;45.80;30.08;;;9.00;99.90;;;;;;4978775;28;89586;-35
2022/03/29 09:58:25;;;;;;;42.10;27.77;;;8.90;99.90;;;;;;4978685;28;90228;-35
2022/03/29 10:00:51;;;;;;;43.75;29.67;;;9.00;99.90;;;;;;4978195;28;89924;-36
2022/03/29 10:03:18;;;;;;;39.78;27.50;;;9.20;99.90;;;;;;4978879;28;90439;-37
2022/03/29 10:05:49;;;;;;;44.85;29.38;;;9.30;99.90;;;;;;4978915;28;90029;-36
2022/03/29 10:11:03;;;;;;;49.35;30.08;;;9.20;99.90;;;;;;4978934;28;89498;-36
2022/03/29 10:13:30;;;;;;;42.13;29.90;;;9.40;99.90;;;;;;4978008;28;88494;-36
2022/03/29 10:15:56;;;;;;;48.20;31.15;;;9.30;99.90;;;;;;4978137;28;88275;-36
2022/03/29 10:18:26;;;;;;;35.58;28.17;;;9.30;99.90;;;;;;4979019;28;90286;-39
2022/03/29 10:20:54;;;;;;;46.70;30.02;;;9.40;99.90;;;;;;4977387;28;90707;-36
2022/03/29 10:23:24;;;;;;;48.95;29.70;;;9.40;99.90;;;;;;4977935;28;90806;-36
2022/03/29 10:25:51;;;;;;;51.38;31.23;;;9.50;99.90;;;;;;4978346;28;88730;-34
2022/03/29 10:28:17;;;;;;;41.40;29.60;;;9.30;99.90;;;;;;4978606;28;90877;-36
2022/03/29 10:30:43;;;;;;;39.65;26.60;;;9.20;99.90;;;;;;4978473;28;89223;-37
2022/03/29 10:33:31;;;;;;;40.63;30.45;;;9.30;99.90;;;;;;4978128;28;89467;-33
2022/03/29 10:36:02;;;;;;;38.72;27.88;;;9.40;99.90;;;;;;4977384;28;88614;-35
2022/03/29 10:38:43;;;;;;;39.95;28.88;;;9.40;99.90;;;;;;4978179;28;91369;-36
2022/03/29 10:41:27;;;;;;;45.45;28.48;;;9.50;99.90;;;;;;4978093;28;89316;-34
2022/03/29 10:44:11;;;;;;;42.28;29.23;;;10.10;99.90;;;;;;4977442;28;90152;-38
2022/03/29 10:46:47;;;;;;;47.35;29.88;;;10.10;99.90;;;;;;4959915;28;90437;-36
2022/03/29 10:49:22;;;;;;;43.80;29.38;;;10.40;99.90;;;;;;4978303;28;90860;-38
2022/03/29 10:52:19;;;;;;;45.30;28.65;;;10.40;99.90;;;;;;4977390;28;89914;-36
2022/03/29 10:54:45;;;;;;;48.40;28.83;;;10.30;99.90;;;;;;4964330;28;90276;-38
2022/03/29 10:57:24;;;;;;;44.78;27.30;;;10.50;99.90;;;;;;4977968;28;88957;-35
2022/03/29 10:59:51;;;;;;;49.45;29.13;;;10.10;99.90;;;;;;4977935;28;90187;-35
2022/03/29 11:02:22;;;;;;;40.60;25.90;;;10.20;99.90;;;;;;4977086;28;89751;-38
2022/03/29 11:04:59;;;;;;;47.22;27.17;;;10.50;99.90;;;;;;4977057;28;90403;-36
2022/03/29 11:07:25;;;;;;;39.70;27.60;;;10.70;99.90;;;;;;4977389;28;89416;-34
2022/03/29 11:10:13;;;;;;;50.20;27.77;;;10.50;99.90;;;;;;4977569;28;90237;-40
2022/03/29 11:12:43;;;;;;;43.20;28.65;;;10.60;99.90;;;;;;4976998;28;90887;-38
2022/03/29 11:15:24;;;;;;;43.00;27.17;;;10.60;99.90;;;;;;4977202;28;90234;-39
2022/03/29 11:17:53;;;;;;;38.63;27.02;;;10.50;99.90;;;;;;4977198;28;89300;-36
2022/03/29 11:20:38;;;;;;;38.13;25.85;;;11.10;99.90;;;;;;4977177;28;90346;-35
2022/03/29 11:23:08;;;;;;;34.63;26.10;;;11.60;99.90;;;;;;4978230;28;89788;-39
2022/03/29 11:25:39;;;;;;;49.05;29.45;;;11.20;99.90;;;;;;4977598;28;89977;-37
2022/03/29 11:28:13;;;;;;;44.33;26.98;;;10.80;99.90;;;;;;4977637;28;89689;-39
2022/03/29 11:30:39;;;;;;;41.05;25.05;;;10.80;99.90;;;;;;4976960;28;90370;-36
2022/03/29 11:33:06;;;;;;;51.70;22.80;;;11.20;99.90;;;;;;4977760;28;89557;-36
2022/03/29 11:35:33;;;;;;;38.08;23.80;;;11.10;99.90;;;;;;4959868;28;89733;-35
2022/03/29 11:38:13;;;;;;;33.95;23.00;;;10.90;99.90;;;;;;4976840;28;89802;-34
2022/03/29 11:40:39;;;;;;;36.13;23.90;;;10.70;99.90;;;;;;4977212;28;90592;-34
2022/03/29 11:43:10;;;;;;;30.52;22.50;;;11.00;99.90;;;;;;4976356;28;89168;-35
2022/03/29 11:45:44;;;;;;;37.53;24.33;;;11.20;99.90;;;;;;4976746;28;89625;-37
2022/03/29 11:48:12;;;;;;;35.05;22.58;;;11.20;99.90;;;;;;4977355;28;89392;-37
2022/03/29 11:50:51;;;;;;;30.35;21.00;;;11.20;99.90;;;;;;4976597;28;89358;-36
2022/03/29 11:53:27;;;;;;;32.50;22.33;;;11.50;99.90;;;;;;4976375;28;89840;-35
2022/03/29 11:56:01;;;;;;;36.65;22.17;;;11.90;99.90;;;;;;4976546;28;89600;-39
2022/03/29 11:58:30;;;;;;;36.30;23.15;;;11.90;99.90;;;;;;4977486;28;88607;-38
2022/03/29 12:01:02;;;;;;;26.30;19.67;;;12.10;99.90;;;;;;4977050;28;90348;-37
2022/03/29 12:03:34;;;;;;;34.83;23.00;;;11.80;97.20;;;;;;4975770;28;90640;-35
2022/03/29 12:06:02;;;;;;;27.70;20.02;;;11.50;99.90;;;;;;4976183;28;90398;-36
2022/03/29 12:09:02;;;;;;;32.15;21.60;;;11.80;99.90;;;;;;4976582;28;88219;-36
2022/03/29 12:11:31;;;;;;;25.88;18.63;;;11.70;99.90;;;;;;4976236;28;90850;-36
2022/03/29 12:14:05;;;;;;;;;;;11.80;99.90;;;;;;4976359;28;88961;-36
2022/03/29 12:16:35;;;;;;;34.08;20.90;;;11.90;95.90;;;;;;4960414;28;88700;-36
2022/03/29 12:19:01;;;;;;;36.17;20.20;;;11.90;99.90;;;;;;5012125;22;88016;-35
2022/03/29 12:21:26;;;;;;;29.77;19.00;;;11.60;99.90;;;;;;4976660;28;90120;-35
2022/03/29 12:24:08;;;;;;;37.50;19.80;;;11.20;99.90;;;;;;4976579;28;89382;-39
2022/03/29 12:26:43;;;;;;;32.50;20.52;;;11.00;99.90;;;;;;4976103;28;89724;-34
2022/03/29 12:29:12;;;;;;;37.10;19.88;;;11.30;99.90;;;;;;4976195;28;90004;-34
2022/03/29 12:31:38;;;;;;;26.40;18.85;;;11.30;99.90;;;;;;4976602;28;91252;-35
2022/03/29 12:34:06;;;;;;;33.97;19.52;;;11.30;99.90;;;;;;4976297;28;88584;-35
2022/03/29 12:36:31;;;;;;;32.30;20.35;;;11.50;99.90;;;;;;4975722;28;89442;-36
2022/03/29 12:39:05;;;;;;;27.60;18.63;;;11.30;99.90;;;;;;4958975;28;88771;-38
2022/03/29 12:41:57;;;;;;;33.88;19.33;;;11.00;99.90;;;;;;4976333;28;90294;-35
2022/03/29 12:44:39;;;;;;;33.38;19.38;;;11.10;99.90;;;;;;4974406;28;89978;-34
2022/03/29 12:47:06;;;;;;;38.42;20.35;;;11.30;99.90;;;;;;4977408;28;88982;-35
2022/03/29 12:49:36;;;;;;;34.30;18.10;;;11.40;99.90;;;;;;4976337;28;88798;-35
2022/03/29 12:52:05;;;;;;;30.88;15.48;;;11.20;99.90;;;;;;4976282;28;90247;-36
2022/03/29 12:54:46;;;;;;;35.53;17.58;;;11.50;99.90;;;;;;4976166;28;89678;-36